Aérodrome :
LOGIN :

S'inscrire | Disclaimer

   EN    FR    IT 

 










Légende :    VFR   VFR Marginal   IFR   IFR Intensif   IFR Très Intensif
Visi : 
Plafond : 
>= 8 km
>= 3000ft
5 à 8 km
1000 à 3000 ft
1500m à 5 km
500 à 1000 ft
800 à 1500m
200 à 500 ft
< 800m
< 200 ft
Symboles :   Orages  Brouillard  Fortes neiges  Fortes précipitations  Vent > 20 kt
SIGMETs :   Divers  Orages  Givrage  Turbulence  Onde Orograph.  Cendres Volcan.







- Altitude de l'aérodrome : 238 ft
- Code IATA : FAB
- Voir les cartes d'approche


EGLF - Farnborough

DERNIER METAR :
  • 170950Z 21004KT 4500 -RADZ SCT003 BKN005 14/13 Q1019

METARs EXPIRÉS :
  • 170920Z VRB03KT 4500 -RADZ FEW003 BKN005 13/13 Q1019
  • 170850Z 18002KT 4600 -RADZ BKN005 13/12 Q1019
  • 170820Z 17004KT 3000 -RADZ BKN004 12/12 Q1018 REDZ
  • 170750Z 16004KT 2800 DZ BKN004 12/12 Q1018
  • 170720Z 17003KT 3200 DZ BKN005 12/12 Q1018

TAF TAF EGLF
Valide du 17 à 09h jusqu'au 17 à 18h UTC


170802Z 1709/1718 18008KT 8000 -DZ BKN009
BECMG 1709/1712 28010KT
TEMPO 1709/1718 3000 RADZ BKN004
ATIS : +44 09063 800 400 (*282)
Pas de NOTAMs connus pour ce terrain.



MET'MAP, la Météo Aéronautique d'un coup d'oeil ! - Copyright ORBIFLY Décembre 2007 - Disclaimer

ORBIFLY MET'MAP TEAM :

Programmation & Développement : Alexandra Zaïnal
Conception & Développement : Baudouin d'Aumeries
Co-Programmation & Développement : Marc-Olivier Méhu
Soutien technique & logistique : Manuel Goepfert

Contact : metmap@orbifly.com




SOURCES & CREDITS :

   NOAA